Time;durP1;ratioP1;P1;durP2;ratioP2;P2;SDS_P1;SDS_P2;PMS_P1;PMS_P2;Temp;Humidity;BMP_temperature;BMP_pressure;BME280_temperature;BME280_humidity;BME280_pressure;Samples;Min_cycle;Max_cycle;Signal;HPM_P1;HPM_P2
2022/05/04 00:02:09;;;;;;;21.70;14.80;;;;;;;10.21;59.57;98642.14;221103;1274;22546;-70
2022/05/04 00:07:14;;;;;;;19.80;14.60;;;;;;;10.26;59.76;98643.58;221018;1273;238568;-70
2022/05/04 00:12:19;;;;;;;25.90;15.60;;;;;;;10.31;59.87;98643.98;220759;1274;22559;-71
2022/05/04 00:17:22;;;;;;;21.20;15.90;;;;;;;10.38;59.99;98648.59;220843;1276;23967;-71
2022/05/04 00:22:26;;;;;;;19.30;15.50;;;;;;;10.47;59.83;98649.74;220725;1274;22560;-71
2022/05/04 00:27:28;;;;;;;21.60;15.00;;;;;;;10.56;59.90;98649.70;220585;1276;23755;-71
2022/05/04 00:32:31;;;;;;;19.50;14.40;;;;;;;10.63;59.89;98647.89;220871;1274;24319;-71
2022/05/04 00:37:33;;;;;;;19.80;14.70;;;;;;;10.70;59.77;98648.91;220992;1274;22601;-71
2022/05/04 00:42:35;;;;;;;20.40;14.70;;;;;;;10.76;59.94;98649.39;220822;1273;22528;-71
2022/05/04 00:47:38;;;;;;;21.70;15.20;;;;;;;10.85;59.82;98652.31;220878;1273;23072;-71
2022/05/04 00:52:43;;;;;;;23.20;15.20;;;;;;;10.92;60.04;98658.95;220618;1276;22545;-71
2022/05/04 01:03:07;;;;;;;21.00;15.00;;;;;;;11.02;59.63;98665.50;220874;1274;22530;-70
2022/05/04 01:08:10;;;;;;;20.20;15.80;;;;;;;11.06;59.74;98664.09;219451;1274;22535;-70
2022/05/04 01:13:18;;;;;;;22.10;15.20;;;;;;;11.07;59.70;98664.65;219119;1274;22564;-71
2022/05/04 01:18:24;;;;;;;20.40;14.80;;;;;;;11.10;59.95;98670.08;220698;1274;23558;-71
2022/05/04 01:23:27;;;;;;;19.60;14.30;;;;;;;11.12;59.82;98671.65;220803;1274;23085;-72
2022/05/04 01:28:32;;;;;;;21.00;14.60;;;;;;;11.12;59.58;98667.14;220804;1274;22534;-70
2022/05/04 01:33:35;;;;;;;23.80;15.90;;;;;;;11.11;59.71;98675.42;220983;1273;22691;-70
2022/05/04 01:38:37;;;;;;;23.40;16.60;;;;;;;11.08;59.86;98677.09;220902;1276;25310;-70
2022/05/04 01:43:39;;;;;;;23.60;17.00;;;;;;;11.03;60.02;98681.45;220976;1274;25298;-71
2022/05/04 01:48:41;;;;;;;26.50;17.20;;;;;;;10.97;60.26;98682.52;221003;1274;22572;-70
2022/05/04 01:53:44;;;;;;;25.20;16.70;;;;;;;10.94;60.61;98682.13;220990;1274;25258;-70
2022/05/04 01:58:46;;;;;;;25.10;16.40;;;;;;;10.92;60.70;98684.80;221000;1273;22548;-71
2022/05/04 02:03:48;;;;;;;24.20;15.70;;;;;;;10.90;60.69;98688.30;220976;1274;22626;-71
2022/05/04 02:08:51;;;;;;;22.50;15.90;;;;;;;10.89;60.56;98683.75;221010;1274;22565;-71
2022/05/04 02:13:54;;;;;;;23.80;15.60;;;;;;;10.90;60.57;98683.80;220856;1274;23133;-70
2022/05/04 02:18:59;;;;;;;21.80;14.90;;;;;;;10.92;60.99;98680.14;220909;1273;23829;-71
2022/05/04 02:24:02;;;;;;;26.30;16.40;;;;;;;10.93;61.06;98674.27;221018;1274;25369;-71
2022/05/04 02:29:04;;;;;;;22.00;14.70;;;;;;;10.93;61.11;98674.79;221171;1274;22780;-71
2022/05/04 02:34:06;;;;;;;21.20;15.40;;;;;;;10.93;60.92;98676.59;221061;1274;25322;-71
2022/05/04 02:39:08;;;;;;;23.70;16.70;;;;;;;10.89;61.06;98677.88;220870;1274;22778;-71
2022/05/04 02:44:11;;;;;;;26.00;17.00;;;;;;;10.85;61.01;98682.65;220617;1274;22593;-72
2022/05/04 02:49:29;;;;;;;23.10;15.90;;;;;;;10.80;61.12;98682.25;220956;1273;25249;-71
2022/05/04 02:54:38;;;;;;;21.30;15.40;;;;;;;10.77;61.16;98687.16;221124;1274;22541;-72
2022/05/04 02:59:47;;;;;;;21.30;15.90;;;;;;;10.78;61.22;98689.83;220986;1274;22539;-71
2022/05/04 03:04:50;;;;;;;18.50;14.10;;;;;;;10.79;61.35;98699.30;220686;1274;24719;-71
2022/05/04 03:09:56;;;;;;;23.10;15.60;;;;;;;10.79;61.39;98697.79;220762;1273;22691;-71
2022/05/04 03:14:59;;;;;;;19.60;14.60;;;;;;;10.80;61.40;98695.42;220807;1274;22584;-71
2022/05/04 03:20:02;;;;;;;21.80;16.40;;;;;;;10.78;61.56;98696.36;220660;1274;26062;-70
2022/05/04 03:25:09;;;;;;;22.30;17.30;;;;;;;10.74;61.77;98701.25;221169;1273;22525;-71
2022/05/04 03:30:11;;;;;;;25.40;17.30;;;;;;;10.68;62.30;98709.70;221163;1273;22654;-70
2022/05/04 03:35:13;;;;;;;23.30;16.30;;;;;;;10.62;62.91;98712.03;221510;1274;23129;-74
2022/05/04 03:40:16;;;;;;;22.10;16.50;;;;;;;10.58;63.34;98713.96;221316;1274;22635;-71
2022/05/04 03:45:24;;;;;;;21.00;15.70;;;;;;;10.58;63.45;98719.00;221507;1274;24381;-71
2022/05/04 03:50:39;;;;;;;21.40;15.60;;;;;;;10.58;63.50;98723.70;220798;1273;25247;-71
2022/05/04 03:55:52;;;;;;;22.90;16.10;;;;;;;10.63;63.48;98726.85;220709;1276;22714;-72
2022/05/04 04:00:54;;;;;;;21.20;15.40;;;;;;;10.65;63.74;98731.34;221656;1273;24239;-71
2022/05/04 04:05:57;;;;;;;18.40;14.40;;;;;;;10.70;63.84;98740.95;221009;1274;24764;-70
2022/05/04 04:10:59;;;;;;;20.80;15.40;;;;;;;10.78;63.94;98745.34;221422;1273;22531;-71
2022/05/04 04:16:01;;;;;;;23.60;15.20;;;;;;;10.90;63.67;98746.41;221200;1274;24294;-71
2022/05/04 04:26:26;;;;;;;21.90;15.50;;;;;;;11.08;63.47;98751.30;220939;1274;22623;-71
2022/05/04 04:31:34;;;;;;;;;;;;;;;11.14;63.80;98755.10;221042;1273;23323;-71
2022/05/04 04:36:45;;;;;;;19.10;14.50;;;;;;;11.19;63.66;98762.38;221086;1274;22554;-71
2022/05/04 04:42:02;;;;;;;18.60;14.20;;;;;;;11.25;63.68;98758.27;220828;1274;22563;-71
2022/05/04 04:47:17;;;;;;;18.40;14.00;;;;;;;11.32;63.63;98754.63;221348;1274;23638;-71
2022/05/04 04:52:31;;;;;;;18.10;13.90;;;;;;;11.41;63.84;98752.74;220977;1273;22610;-72
2022/05/04 04:57:33;;;;;;;20.60;14.60;;;;;;;11.49;63.37;98752.27;220797;1274;25395;-71
2022/05/04 05:02:36;;;;;;;21.20;14.60;;;;;;;11.54;63.36;98752.58;221379;1274;22650;-71
2022/05/04 05:07:38;;;;;;;22.40;16.70;;;;;;;11.65;63.61;98755.77;220887;1274;22703;-71
2022/05/04 05:12:40;;;;;;;23.00;17.80;;;;;;;11.81;63.65;98760.30;220928;1273;26646;-73
2022/05/04 05:17:42;;;;;;;34.10;24.10;;;;;;;12.01;63.89;98759.37;220549;1276;25394;-72
2022/05/04 05:22:45;;;;;;;32.20;22.70;;;;;;;12.23;63.73;98766.54;220719;1276;26463;-72
2022/05/04 05:27:47;;;;;;;28.00;20.20;;;;;;;12.45;63.70;98769.59;220794;1276;26467;-71
2022/05/04 05:32:49;;;;;;;27.70;19.80;;;;;;;12.67;63.59;98765.14;220906;1275;25239;-72
2022/05/04 05:37:51;;;;;;;23.40;18.40;;;;;;;12.87;63.38;98764.15;220710;1276;26246;-72
2022/05/04 05:42:54;;;;;;;26.70;19.60;;;;;;;13.08;63.12;98764.39;220874;1276;22565;-72
2022/05/04 05:47:56;;;;;;;28.20;21.20;;;;;;;13.26;62.97;98768.12;221165;1274;22593;-70
2022/05/04 05:52:58;;;;;;;22.90;18.80;;;;;;;13.43;63.16;98774.94;221405;1274;22565;-72
2022/05/04 05:58:24;;;;;;;25.50;18.30;;;;;;;13.59;63.11;98771.73;221914;1273;22550;-71
2022/05/04 06:03:52;;;;;;;23.10;17.50;;;;;;;13.73;62.90;98772.58;221061;1274;25404;-71
2022/05/04 06:08:54;;;;;;;28.30;20.70;;;;;;;13.78;62.95;98764.14;221675;1274;25251;-72
2022/05/04 06:13:57;;;;;;;28.20;21.90;;;;;;;13.92;63.19;98764.11;221049;1273;27145;-71
2022/05/04 06:18:59;;;;;;;29.90;23.70;;;;;;;14.05;63.23;98767.05;220943;1273;22555;-71
2022/05/04 06:24:02;;;;;;;31.80;25.80;;;;;;;14.19;62.98;98774.20;220939;1273;22553;-72
2022/05/04 06:29:05;;;;;;;27.50;22.80;;;;;;;14.34;62.87;98778.27;221269;1274;22993;-72
2022/05/04 06:34:07;;;;;;;30.20;24.60;;;;;;;14.52;62.83;98783.91;221211;1274;22555;-71
2022/05/04 06:39:18;;;;;;;28.60;25.30;;;;;;;14.74;62.78;98785.63;221825;1274;22686;-71
2022/05/04 06:44:20;;;;;;;26.70;22.10;;;;;;;14.96;62.56;98782.00;221193;1274;22951;-72
2022/05/04 06:49:26;;;;;;;22.00;17.80;;;;;;;15.20;61.65;98783.48;221052;1274;22539;-71
2022/05/04 06:54:28;;;;;;;16.90;15.10;;;;;;;15.40;60.58;98781.57;221263;1274;22579;-71
2022/05/04 06:59:30;;;;;;;18.60;14.80;;;;;;;15.59;59.67;98780.98;221240;1274;22560;-72
2022/05/04 07:04:32;;;;;;;14.10;11.40;;;;;;;15.83;59.04;98785.54;221096;1274;22679;-70
2022/05/04 07:09:36;;;;;;;13.80;11.20;;;;;;;16.09;58.09;98784.00;220957;1274;22607;-71
2022/05/04 07:14:38;;;;;;;12.30;10.30;;;;;;;16.36;57.31;98784.73;221185;1274;25473;-72
2022/05/04 07:19:43;;;;;;;11.50;10.30;;;;;;;16.51;56.49;98787.70;221037;1274;22558;-72
2022/05/04 07:24:58;;;;;;;10.50;9.30;;;;;;;16.73;56.23;98789.44;221826;1274;24307;-71
2022/05/04 07:30:10;;;;;;;13.00;11.20;;;;;;;16.98;55.32;98794.54;220938;1273;22549;-71
2022/05/04 07:35:13;;;;;;;12.20;10.90;;;;;;;17.18;54.76;98799.25;221230;1273;22574;-71
2022/05/04 07:45:38;;;;;;;12.10;10.50;;;;;;;17.59;53.88;98802.41;221105;1274;22605;-71
2022/05/04 07:50:40;;;;;;;12.30;10.80;;;;;;;17.80;53.40;98803.58;220755;1276;22587;-71
2022/05/04 07:55:47;;;;;;;15.40;12.00;;;;;;;17.99;52.34;98811.52;221013;1276;23488;-71
2022/05/04 08:06:15;;;;;;;11.10;10.00;;;;;;;18.15;51.40;98812.27;221258;1274;22611;-71
2022/05/04 08:11:17;;;;;;;12.30;10.60;;;;;;;18.30;51.20;98807.94;221507;1274;22776;-71
2022/05/04 08:16:19;;;;;;;11.50;9.80;;;;;;;18.49;50.89;98808.45;220962;1274;25340;-71
2022/05/04 08:21:22;;;;;;;11.10;9.50;;;;;;;18.70;49.76;98815.36;224133;1273;22564;-72
2022/05/04 08:26:27;;;;;;;9.50;8.50;;;;;;;18.81;49.27;98815.92;221354;1273;22728;-71
2022/05/04 08:31:30;;;;;;;8.40;7.60;;;;;;;18.91;48.54;98818.66;221177;1274;22585;-72
2022/05/04 08:36:32;;;;;;;8.90;6.80;;;;;;;18.97;47.75;98820.21;221294;1273;22529;-72
2022/05/04 08:41:39;;;;;;;7.60;6.60;;;;;;;19.05;47.27;98820.38;221506;1273;22525;-71
2022/05/04 08:46:44;;;;;;;6.60;5.70;;;;;;;19.23;46.97;98822.83;221336;1274;24287;-70
2022/05/04 08:51:48;;;;;;;7.40;6.70;;;;;;;19.45;46.19;98825.84;221229;1274;22658;-71
2022/05/04 08:56:51;;;;;;;7.40;6.50;;;;;;;19.55;45.66;98826.57;223323;1274;25416;-70
2022/05/04 09:01:53;;;;;;;7.10;6.40;;;;;;;19.69;45.24;98828.27;221059;1274;26380;-72
2022/05/04 09:06:56;;;;;;;6.60;5.90;;;;;;;19.86;44.73;98828.65;221026;1274;25315;-71
2022/05/04 09:12:01;;;;;;;7.20;5.70;;;;;;;20.21;44.63;98818.48;221025;1274;25246;-71
2022/05/04 09:17:09;;;;;;;8.20;6.90;;;;;;;20.54;44.07;98813.43;225349;1274;22775;-70
2022/05/04 09:22:16;;;;;;;9.30;6.60;;;;;;;20.95;43.42;98807.81;222113;1274;22788;-71
2022/05/04 09:27:18;;;;;;;8.80;7.90;;;;;;;21.30;42.07;98808.50;221462;1274;22694;-70
2022/05/04 09:32:29;;;;;;;8.70;7.80;;;;;;;21.68;42.03;98808.87;220945;1274;22546;-71
2022/05/04 09:48:29;;;;;;;8.10;7.30;;;;;;;21.80;39.75;98807.13;221155;1273;22532;-70
2022/05/04 09:53:36;;;;;;;9.10;7.80;;;;;;;21.71;39.70;98803.53;221268;1274;22531;-70
2022/05/04 09:58:39;;;;;;;8.30;7.10;;;;;;;21.78;39.74;98798.52;221125;1274;25287;-71
2022/05/04 10:03:43;;;;;;;7.60;6.80;;;;;;;21.87;39.67;98796.27;221522;1277;23431;-71
2022/05/04 10:08:46;;;;;;;7.40;6.70;;;;;;;21.89;39.24;98800.50;221218;1274;22532;-73
2022/05/04 10:13:54;;;;;;;10.60;6.20;;;;;;;21.70;38.85;98799.24;221106;1274;22558;-72
2022/05/04 10:19:00;;;;;;;6.80;6.10;;;;;;;21.60;38.47;98795.02;223229;1274;22739;-72
2022/05/04 10:24:07;;;;;;;8.30;7.50;;;;;;;21.60;38.47;98798.05;221686;1274;22586;-72
2022/05/04 10:35:11;;;;;;;10.10;7.30;;;;;;;21.71;38.10;98797.77;221807;1274;22587;-72
2022/05/04 10:40:23;;;;;;;8.80;7.90;;;;;;;21.72;37.85;98799.51;221857;1273;22619;-72
2022/05/04 10:45:33;;;;;;;8.00;7.30;;;;;;;21.61;37.41;98796.67;222259;1274;22582;-73
2022/05/04 10:51:10;;;;;;;7.80;7.00;;;;;;;21.75;38.38;98792.94;221278;1274;23439;-73
2022/05/04 10:56:33;;;;;;;7.60;6.70;;;;;;;22.04;38.21;98789.37;221965;1274;22795;-72
2022/05/04 11:01:57;;;;;;;10.40;6.90;;;;;;;22.20;37.80;98791.65;223012;1274;22528;-72
2022/05/04 11:07:15;;;;;;;8.80;7.40;;;;;;;22.17;37.27;98790.91;221581;1274;23372;-72
2022/05/04 11:12:22;;;;;;;8.30;7.50;;;;;;;22.35;37.40;98787.15;221316;1277;24347;-73
2022/05/04 11:17:40;;;;;;;6.70;6.10;;;;;;;22.68;36.94;98794.80;221214;1277;22609;-72
2022/05/04 11:22:42;;;;;;;8.10;6.30;;;;;;;22.22;36.50;98798.64;221189;1274;22563;-73
2022/05/04 11:27:51;;;;;;;7.00;6.10;;;;;;;21.43;37.29;98796.99;221068;1277;22562;-72
2022/05/04 11:32:57;;;;;;;8.50;7.70;;;;;;;20.77;40.05;98796.05;221182;1274;27475;-73
2022/05/04 11:38:13;;;;;;;7.90;7.10;;;;;;;20.34;40.58;98787.48;221169;1274;23134;-74
2022/05/04 11:43:27;;;;;;;7.10;6.40;;;;;;;20.23;40.69;98780.16;221153;1274;24297;-73
2022/05/04 11:48:30;;;;;;;6.00;5.50;;;;;;;20.31;39.88;98778.30;221091;1274;22518;-73
2022/05/04 11:53:34;;;;;;;7.50;6.80;;;;;;;20.47;39.29;98776.57;221471;1274;22632;-71
2022/05/04 11:58:40;;;;;;;6.50;5.70;;;;;;;20.53;38.70;98772.59;221182;1275;24279;-70
2022/05/04 12:03:42;;;;;;;6.70;5.60;;;;;;;20.64;38.64;98770.05;221349;1274;22585;-71
2022/05/04 12:08:47;;;;;;;6.10;5.50;;;;;;;20.85;38.52;98767.92;220790;1274;390033;-72
2022/05/04 12:13:52;;;;;;;7.00;6.40;;;;;;;21.06;38.00;98770.77;221067;1274;22565;-72
2022/05/04 12:18:58;;;;;;;6.40;5.80;;;;;;;21.17;37.21;98769.74;221230;1274;22565;-73
2022/05/04 12:24:03;;;;;;;7.60;6.80;;;;;;;21.23;37.40;98767.20;220963;1274;22580;-72
2022/05/04 12:34:42;;;;;;;7.50;6.40;;;;;;;21.20;37.88;98766.45;221100;1274;22564;-72
2022/05/04 12:40:02;;;;;;;7.10;6.40;;;;;;;20.95;37.30;98764.23;221162;1274;22550;-72
2022/05/04 12:45:21;;;;;;;7.90;7.10;;;;;;;20.75;37.39;98759.55;221031;1275;22606;-73
2022/05/04 12:50:39;;;;;;;8.70;6.80;;;;;;;20.56;37.99;98759.05;221178;1274;22550;-72
2022/05/04 13:01:04;;;;;;;6.90;6.30;;;;;;;20.18;38.72;98756.40;221028;1274;25321;-73
2022/05/04 13:06:23;;;;;;;7.90;6.80;;;;;;;20.06;38.97;98753.17;222978;1272;22606;-72
2022/05/04 13:11:34;;;;;;;7.10;6.30;;;;;;;19.92;39.13;98754.32;221120;1275;22553;-71
2022/05/04 13:16:40;;;;;;;8.80;6.40;;;;;;;19.80;39.73;98758.27;223698;1273;22686;-72
2022/05/04 13:21:45;;;;;;;7.80;6.90;;;;;;;19.73;40.19;98757.07;221080;1274;25340;-72
2022/05/04 13:26:47;;;;;;;9.10;7.00;;;;;;;19.58;39.79;98759.58;221684;1274;23203;-71
2022/05/04 13:31:53;;;;;;;8.60;7.40;;;;;;;19.43;40.33;98756.70;220932;1275;22573;-71
2022/05/04 13:37:04;;;;;;;11.20;7.10;;;;;;;19.36;40.69;98754.81;221244;1274;22528;-71
2022/05/04 13:42:12;;;;;;;8.60;7.80;;;;;;;19.39;40.77;98750.25;221064;1274;22556;-70
2022/05/04 13:47:18;;;;;;;8.50;7.50;;;;;;;19.49;40.67;98752.35;221243;1274;22570;-71
2022/05/04 13:57:42;;;;;;;8.00;7.00;;;;;;;19.74;40.30;98747.65;221371;1274;26406;-72
2022/05/04 14:02:44;;;;;;;7.90;7.00;;;;;;;19.96;40.28;98749.36;221170;1274;22530;-71
2022/05/04 14:07:49;;;;;;;8.50;7.40;;;;;;;20.24;40.02;98747.06;220944;1274;22572;-71
2022/05/04 14:13:07;;;;;;;9.10;7.60;;;;;;;20.47;39.81;98744.63;220930;1274;25117;-71
2022/05/04 14:18:13;;;;;;;8.70;7.80;;;;;;;20.60;39.53;98744.67;220783;1274;22539;-71
2022/05/04 14:23:19;;;;;;;8.60;7.80;;;;;;;20.64;39.21;98744.28;220824;1273;24411;-72
2022/05/04 14:28:25;;;;;;;9.10;7.70;;;;;;;20.63;39.18;98739.99;221464;1273;22544;-72
2022/05/04 14:33:33;;;;;;;11.60;10.40;;;;;;;20.71;39.13;98736.30;221217;1274;22559;-72
2022/05/04 14:38:35;;;;;;;12.40;7.90;;;;;;;20.69;38.92;98735.63;220541;1277;22714;-71
2022/05/04 14:43:51;;;;;;;9.60;7.20;;;;;;;20.67;38.68;98731.30;220794;1274;22564;-72
2022/05/04 14:48:53;;;;;;;7.10;6.40;;;;;;;20.76;38.43;98731.20;221220;1275;22554;-71
2022/05/04 14:54:05;;;;;;;7.20;6.40;;;;;;;20.83;38.28;98730.48;220682;1274;23326;-71
2022/05/04 14:59:08;;;;;;;7.40;6.70;;;;;;;20.81;38.25;98728.88;220477;1275;22603;-72
2022/05/04 15:09:34;;;;;;;7.40;6.60;;;;;;;20.79;38.14;98730.17;220881;1274;23934;-72
2022/05/04 15:14:37;;;;;;;8.40;7.00;;;;;;;20.73;38.17;98725.38;220895;1274;22585;-71
2022/05/04 15:19:39;;;;;;;7.40;6.70;;;;;;;20.66;38.41;98720.30;221156;1274;25321;-71
2022/05/04 15:24:41;;;;;;;7.70;6.70;;;;;;;20.64;38.47;98716.83;221062;1274;22586;-70
2022/05/04 15:29:49;;;;;;;8.60;7.70;;;;;;;20.69;38.49;98714.33;220675;1274;24277;-72
2022/05/04 15:34:51;;;;;;;9.00;7.50;;;;;;;20.84;38.67;98712.22;220686;1276;22566;-72
2022/05/04 15:39:54;;;;;;;10.40;7.80;;;;;;;21.00;38.57;98710.90;220874;1274;25267;-71
2022/05/04 15:45:03;;;;;;;8.80;7.90;;;;;;;20.97;38.23;98710.91;220797;1274;22569;-70
2022/05/04 15:50:07;;;;;;;10.40;8.10;;;;;;;20.90;38.46;98713.81;221181;1273;25422;-70
2022/05/04 15:55:09;;;;;;;9.20;8.30;;;;;;;20.82;38.66;98703.64;220927;1274;22802;-71
2022/05/04 16:00:29;;;;;;;11.20;6.70;;;;;;;20.83;38.93;98702.95;220915;1273;22590;-70
2022/05/04 16:05:52;;;;;;;10.80;7.80;;;;;;;20.88;39.06;98702.34;220916;1274;25518;-71
2022/05/04 16:11:08;;;;;;;7.20;6.20;;;;;;;20.87;39.07;98701.38;220768;1274;24288;-71
2022/05/04 16:16:24;;;;;;;6.50;5.90;;;;;;;20.77;38.60;98697.77;220873;1274;25470;-72
2022/05/04 16:21:41;;;;;;;7.60;6.30;;;;;;;20.74;38.53;98699.88;220725;1274;22656;-71
2022/05/04 16:26:49;;;;;;;8.80;6.10;;;;;;;20.65;38.23;98699.85;221025;1274;22569;-72
2022/05/04 16:31:53;;;;;;;7.10;5.80;;;;;;;20.55;38.63;98696.05;220334;1273;22556;-72
2022/05/04 16:36:58;;;;;;;10.60;6.60;;;;;;;20.44;38.92;98701.98;221397;1274;23833;-71
2022/05/04 16:42:11;;;;;;;9.40;6.10;;;;;;;20.31;38.64;98701.69;221006;1274;23059;-70
2022/05/04 16:47:18;;;;;;;6.70;6.00;;;;;;;20.20;39.38;98697.23;219994;1274;22613;-71
2022/05/04 16:52:20;;;;;;;6.50;5.70;;;;;;;20.04;39.50;98695.11;221201;1274;25369;-71
2022/05/04 16:57:22;;;;;;;7.00;6.30;;;;;;;19.90;39.66;98696.72;220882;1274;24334;-71
2022/05/04 17:02:24;;;;;;;6.70;6.00;;;;;;;19.73;40.03;98701.79;220898;1273;23311;-70
2022/05/04 17:07:27;;;;;;;7.60;6.70;;;;;;;19.55;40.20;98700.67;219106;1274;24237;-71
2022/05/04 17:12:29;;;;;;;7.10;6.40;;;;;;;19.40;40.47;98697.95;220538;1275;25471;-71
2022/05/04 17:17:32;;;;;;;8.60;6.70;;;;;;;19.22;40.73;98704.24;220834;1274;22559;-71
2022/05/04 17:22:37;;;;;;;8.70;6.70;;;;;;;19.05;41.14;98703.80;220945;1274;25199;-72
2022/05/04 17:27:39;;;;;;;8.90;6.80;;;;;;;18.89;41.38;98706.30;220716;1274;25145;-71
2022/05/04 17:38:17;;;;;;;8.40;6.80;;;;;;;18.49;41.80;98711.42;221004;1274;26492;-72
2022/05/04 17:43:20;;;;;;;17.00;13.30;;;;;;;18.26;42.15;98719.42;220967;1274;23368;-72
2022/05/04 17:48:35;;;;;;;9.40;7.80;;;;;;;18.03;42.64;98722.50;220989;1274;23024;-72
2022/05/04 17:53:56;;;;;;;9.50;6.90;;;;;;;17.78;43.13;98726.35;220977;1274;22557;-72
2022/05/04 17:58:58;;;;;;;9.30;8.20;;;;;;;17.50;43.55;98728.74;221152;1273;25312;-71
2022/05/04 18:04:19;;;;;;;11.20;9.20;;;;;;;17.21;43.89;98731.94;220973;1274;22544;-71
2022/05/04 18:09:39;;;;;;;8.90;7.10;;;;;;;16.88;44.45;98734.92;220923;1274;22542;-72
2022/05/04 18:14:44;;;;;;;11.10;7.70;;;;;;;16.55;45.04;98739.52;221220;1274;26441;-71
2022/05/04 18:19:56;;;;;;;11.80;8.50;;;;;;;16.28;45.48;98745.72;221147;1274;22611;-71
2022/05/04 18:25:12;;;;;;;10.50;8.60;;;;;;;16.02;45.93;98747.02;221031;1274;22553;-71
2022/05/04 18:30:38;;;;;;;;;;;;;;;15.73;46.40;98751.85;220966;1276;22681;-72
2022/05/04 18:35:46;;;;;;;12.50;8.80;;;;;;;15.46;46.90;98755.38;220854;1274;24239;-71
2022/05/04 18:40:59;;;;;;;11.50;8.70;;;;;;;15.21;47.41;98758.73;220658;1275;22550;-71
2022/05/04 18:46:01;;;;;;;10.70;9.00;;;;;;;14.98;47.93;98762.33;220985;1274;22537;-70
2022/05/04 18:51:40;;;;;;;13.70;11.00;;;;;;;14.75;48.58;98767.93;221096;1274;22585;-70
2022/05/04 18:57:18;;;;;;;15.60;9.60;;;;;;;14.53;49.17;98771.23;221034;1274;25432;-70
2022/05/04 19:02:22;;;;;;;11.70;9.70;;;;;;;14.34;49.62;98766.88;220963;1274;22674;-71
2022/05/04 19:07:25;;;;;;;14.00;9.40;;;;;;;14.18;50.20;98772.84;221282;1273;22696;-71
2022/05/04 19:12:31;;;;;;;17.00;11.60;;;;;;;14.02;50.77;98769.70;221048;1274;22694;-71
2022/05/04 19:17:33;;;;;;;18.60;11.70;;;;;;;13.88;51.09;98772.07;221214;1274;22567;-71
2022/05/04 19:22:43;;;;;;;22.20;14.30;;;;;;;13.73;51.57;98775.27;220880;1274;22788;-71
2022/05/04 19:27:48;;;;;;;27.50;16.60;;;;;;;13.58;51.90;98775.10;220679;1273;22550;-71
2022/05/04 19:32:51;;;;;;;20.60;15.40;;;;;;;13.41;52.30;98780.63;220772;1273;22661;-71
2022/05/04 19:38:04;;;;;;;24.30;16.20;;;;;;;13.23;52.35;98778.06;221297;1274;26797;-71
2022/05/04 19:43:07;;;;;;;26.80;19.40;;;;;;;13.08;52.54;98781.88;220771;1273;22560;-71
2022/05/04 19:48:10;;;;;;;25.60;19.90;;;;;;;12.96;53.04;98778.48;220928;1273;22586;-69
2022/05/04 19:53:13;;;;;;;31.70;21.00;;;;;;;12.85;53.21;98775.96;220996;1274;23283;-71
2022/05/04 19:58:15;;;;;;;29.90;20.60;;;;;;;12.74;53.51;98778.96;221281;1274;26518;-72
2022/05/04 20:03:17;;;;;;;34.00;22.10;;;;;;;12.64;53.77;98783.59;221204;1273;22578;-71
2022/05/04 20:08:23;;;;;;;37.90;23.80;;;;;;;12.54;54.06;98783.69;221203;1273;22497;-72
2022/05/04 20:13:31;;;;;;;33.90;24.20;;;;;;;12.46;54.33;98785.08;220897;1273;22586;-70
2022/05/04 20:18:40;;;;;;;40.90;24.30;;;;;;;12.38;54.81;98787.33;220712;1273;23086;-72
2022/05/04 20:23:53;;;;;;;32.40;22.00;;;;;;;12.30;54.94;98791.80;221299;1273;25364;-71
2022/05/04 20:28:58;;;;;;;32.10;22.80;;;;;;;12.21;54.99;98795.23;220696;1274;24265;-72
2022/05/04 20:34:04;;;;;;;31.70;22.30;;;;;;;12.12;55.36;98793.70;220706;1274;22541;-71
2022/05/04 20:39:23;;;;;;;26.40;20.40;;;;;;;12.01;55.67;98798.69;220806;1274;22553;-71
2022/05/04 20:44:56;;;;;;;29.30;21.90;;;;;;;11.89;55.78;98801.35;221020;1273;25324;-71
2022/05/04 20:52:10;;;;;;;34.80;24.20;;;;;;;11.79;55.97;98797.38;221086;1274;22713;-72
2022/05/04 20:55:57;;;;;;;36.70;25.70;;;;;;;11.73;56.61;98800.10;221043;1273;23009;-71
2022/05/04 21:01:08;;;;;;;35.60;26.20;;;;;;;11.72;56.94;98807.38;220752;1274;23301;-72
2022/05/04 21:06:11;;;;;;;38.30;26.20;;;;;;;11.66;57.28;98816.39;220914;1274;22709;-71
2022/05/04 21:11:16;;;;;;;34.20;25.70;;;;;;;11.54;57.21;98818.89;220617;1273;24265;-70
2022/05/04 21:16:25;;;;;;;30.80;23.90;;;;;;;11.40;57.57;98820.61;220934;1274;26487;-71
2022/05/04 21:21:31;;;;;;;30.80;23.70;;;;;;;11.26;57.82;98817.40;221203;1274;22577;-71
2022/05/04 21:26:36;;;;;;;28.70;21.20;;;;;;;11.13;58.40;98823.85;221096;1274;22724;-71
2022/05/04 21:31:44;;;;;;;30.00;20.40;;;;;;;11.03;58.82;98825.02;221013;1273;23389;-71
2022/05/04 21:36:46;;;;;;;27.70;19.50;;;;;;;10.96;59.06;98822.98;220739;1274;22566;-71
2022/05/04 21:41:53;;;;;;;24.30;17.40;;;;;;;10.91;59.09;98824.91;220857;1273;22634;-71
2022/05/04 21:47:00;;;;;;;22.90;15.90;;;;;;;10.89;59.21;98826.98;220699;1274;23255;-72
2022/05/04 21:52:03;;;;;;;21.40;16.40;;;;;;;10.89;59.27;98825.70;220987;1274;24487;-71
2022/05/04 21:57:06;;;;;;;20.40;14.90;;;;;;;10.88;59.42;98826.09;220738;1273;25338;-71
2022/05/04 22:02:10;;;;;;;19.80;15.90;;;;;;;10.85;59.73;98825.07;220584;1274;24266;-70
2022/05/04 22:07:16;;;;;;;19.90;14.80;;;;;;;10.84;59.78;98827.96;221580;1273;26356;-71
2022/05/04 22:17:45;;;;;;;21.10;16.00;;;;;;;10.83;59.43;98831.73;220801;1274;22531;-71
2022/05/04 22:23:00;;;;;;;23.40;15.90;;;;;;;10.77;59.52;98830.79;221057;1274;22544;-71
2022/05/04 22:28:12;;;;;;;25.30;16.50;;;;;;;10.70;59.38;98837.41;220809;1274;22924;-71
2022/05/04 22:33:27;;;;;;;25.20;18.00;;;;;;;10.56;59.79;98844.91;220860;1274;23279;-71
2022/05/04 22:38:29;;;;;;;23.60;17.70;;;;;;;10.39;60.22;98846.17;220679;1274;22553;-72
2022/05/04 22:43:35;;;;;;;29.20;19.40;;;;;;;10.28;60.39;98845.84;220675;1274;26515;-71
2022/05/04 22:48:37;;;;;;;29.10;20.40;;;;;;;10.17;60.90;98844.84;221065;1274;25369;-71
2022/05/04 22:53:47;;;;;;;37.60;21.60;;;;;;;10.05;60.96;98841.15;220821;1273;22531;-71
2022/05/04 22:58:54;;;;;;;32.40;21.20;;;;;;;9.95;61.34;98835.63;220650;1274;25330;-71
2022/05/04 23:04:09;;;;;;;34.60;21.50;;;;;;;9.84;61.70;98838.94;220965;1273;22550;-71
2022/05/04 23:09:11;;;;;;;33.60;21.50;;;;;;;9.75;62.09;98837.90;220944;1274;22743;-71
2022/05/04 23:14:22;;;;;;;30.20;20.80;;;;;;;9.68;62.40;98838.77;220814;1273;22553;-71
2022/05/04 23:19:30;;;;;;;31.40;21.10;;;;;;;9.61;62.53;98836.30;220786;1276;25524;-71
2022/05/04 23:24:46;;;;;;;32.10;21.80;;;;;;;9.52;62.74;98838.14;220548;1277;22588;-71
2022/05/04 23:29:59;;;;;;;30.70;21.30;;;;;;;9.46;63.08;98838.62;221030;1273;22585;-71
2022/05/04 23:35:19;;;;;;;23.90;18.20;;;;;;;9.38;63.16;98838.56;220832;1274;22682;-72
2022/05/04 23:40:30;;;;;;;;;;;;;;;9.32;63.20;98838.45;220653;1273;22515;-72
2022/05/04 23:45:47;;;;;;;22.60;15.50;;;;;;;9.28;63.07;98836.87;220721;1273;24417;-72
2022/05/04 23:51:02;;;;;;;23.40;15.40;;;;;;;9.25;63.00;98842.50;221230;1274;22677;-72
2022/05/04 23:56:10;;;;;;;20.20;15.80;;;;;;;9.23;63.08;98840.60;221134;1274;22572;-71
